createdAt,value
2019-04-16T00:01:45.349Z,75.50
2019-04-16T00:04:53.653Z,76.00
2019-04-16T00:07:45.235Z,77.00
2019-04-16T00:10:36.013Z,75.70
2019-04-16T00:13:10.262Z,76.50
2019-04-16T00:15:41.313Z,76.70
2019-04-16T00:18:10.097Z,76.00
2019-04-16T00:20:49.326Z,76.60
2019-04-16T00:23:27.109Z,79.90
2019-04-16T00:25:56.491Z,80.70
2019-04-16T00:28:30.434Z,82.70
2019-04-16T00:30:56.775Z,84.20
2019-04-16T00:33:25.982Z,84.20
2019-04-16T00:35:54.942Z,82.70
2019-04-16T00:38:23.843Z,83.90
2019-04-16T00:40:52.777Z,85.00
2019-04-16T00:43:21.644Z,85.90
2019-04-16T00:45:50.858Z,83.80
2019-04-16T00:48:19.726Z,87.90
2019-04-16T00:50:48.700Z,87.70
2019-04-16T00:53:17.541Z,88.70
2019-04-16T00:55:46.573Z,90.20
2019-04-16T00:58:19.475Z,90.30
2019-04-16T01:00:46.217Z,90.50
2019-04-16T01:03:15.310Z,91.90
2019-04-16T01:05:44.249Z,92.20
2019-04-16T01:08:13.181Z,91.80
2019-04-16T01:10:42.192Z,92.80
2019-04-16T01:13:11.466Z,92.50
2019-04-16T01:15:40.396Z,92.30
2019-04-16T01:18:09.422Z,92.70
2019-04-16T01:20:40.408Z,93.20
2019-04-16T01:23:09.105Z,93.00
2019-04-16T01:25:38.093Z,93.30
2019-04-16T01:28:10.726Z,93.70
2019-04-16T01:30:58.754Z,93.70
2019-04-16T01:33:35.498Z,95.00
2019-04-16T01:36:11.670Z,93.90
2019-04-16T01:39:14.841Z,95.50
2019-04-16T01:41:31.344Z,96.20
2019-04-16T01:44:00.327Z,95.70
2019-04-16T01:46:32.548Z,95.30
2019-04-16T01:49:00.248Z,95.70
2019-04-16T01:51:29.231Z,96.10
2019-04-16T01:53:58.308Z,95.70
2019-04-16T01:56:28.865Z,97.00
2019-04-16T01:58:58.196Z,98.00
2019-04-16T02:01:27.261Z,98.00
2019-04-16T02:03:56.685Z,97.00
2019-04-16T02:06:26.664Z,97.40
2019-04-16T02:08:55.632Z,96.50
2019-04-16T02:11:24.586Z,97.00
2019-04-16T02:13:53.517Z,97.50
2019-04-16T02:16:25.257Z,97.90
2019-04-16T02:18:53.216Z,97.90
2019-04-16T02:21:22.149Z,98.30
2019-04-16T02:23:51.077Z,98.20
2019-04-16T02:26:20.556Z,98.00
2019-04-16T02:28:50.915Z,98.90
2019-04-16T02:31:20.185Z,98.50
2019-04-16T02:33:49.290Z,99.10
2019-04-16T02:36:18.261Z,99.90
2019-04-16T02:38:52.739Z,99.90
2019-04-16T02:41:18.073Z,99.90
2019-04-16T02:43:47.011Z,99.90
2019-04-16T02:46:15.995Z,99.90
2019-04-16T02:48:50.216Z,99.90
2019-04-16T02:51:39.908Z,99.90
2019-04-16T02:54:34.026Z,99.90
2019-04-16T02:57:27.983Z,99.90
2019-04-16T02:59:58.481Z,99.90
2019-04-16T03:02:45.901Z,99.90
2019-04-16T03:05:21.176Z,99.80
2019-04-16T03:07:50.234Z,99.90
2019-04-16T03:10:19.713Z,99.20
2019-04-16T03:12:51.887Z,99.90
2019-04-16T03:15:36.431Z,99.90
2019-04-16T03:18:05.445Z,99.90
2019-04-16T03:20:34.458Z,99.90
2019-04-16T03:23:05.905Z,99.90
2019-04-16T03:25:34.110Z,99.90
2019-04-16T03:28:03.110Z,99.90
2019-04-16T03:30:40.209Z,99.90
2019-04-16T03:33:10.422Z,99.90
2019-04-16T03:35:33.523Z,99.90
2019-04-16T03:38:05.320Z,99.90
2019-04-16T03:40:33.146Z,99.90
2019-04-16T03:43:03.975Z,99.90
2019-04-16T03:45:32.871Z,99.90
2019-04-16T03:48:01.897Z,99.90
2019-04-16T03:50:31.501Z,99.90
2019-04-16T03:53:01.155Z,99.90
2019-04-16T03:55:30.166Z,99.90
2019-04-16T03:57:59.171Z,99.90
2019-04-16T04:00:28.150Z,99.90
2019-04-16T04:02:57.124Z,99.90
2019-04-16T04:05:26.117Z,99.90
2019-04-16T04:07:55.553Z,99.90
2019-04-16T04:10:30.754Z,99.90
2019-04-16T04:12:55.432Z,99.90
2019-04-16T04:15:26.470Z,99.90
2019-04-16T04:17:55.213Z,99.90
2019-04-16T04:20:24.212Z,99.90
2019-04-16T04:22:56.798Z,99.90
2019-04-16T04:25:25.459Z,99.90
2019-04-16T04:27:56.284Z,99.90
2019-04-16T04:30:28.883Z,99.90
2019-04-16T04:32:56.598Z,99.90
2019-04-16T04:35:25.533Z,99.90
2019-04-16T04:37:54.511Z,99.90
2019-04-16T04:40:23.567Z,99.90
2019-04-16T04:42:52.574Z,99.90
2019-04-16T04:45:21.673Z,99.90
2019-04-16T04:47:52.281Z,99.90
2019-04-16T04:50:21.304Z,99.90
2019-04-16T04:52:50.205Z,99.90
2019-04-16T04:55:19.137Z,99.90
2019-04-16T04:57:48.294Z,99.90
2019-04-16T05:00:17.411Z,99.90
2019-04-16T05:02:46.337Z,99.90
2019-04-16T05:05:26.571Z,99.90
2019-04-16T05:07:59.768Z,99.90
2019-04-16T05:10:26.170Z,99.90
2019-04-16T05:12:55.774Z,99.90
2019-04-16T05:15:26.474Z,99.90
2019-04-16T05:17:55.450Z,99.90
2019-04-16T05:20:24.563Z,99.90
2019-04-16T05:22:54.487Z,99.90
2019-04-16T05:25:24.454Z,99.90
2019-04-16T05:27:53.577Z,99.90
2019-04-16T05:30:22.582Z,99.90
2019-04-16T05:32:52.645Z,99.90
2019-04-16T05:35:21.840Z,99.90
2019-04-16T05:37:51.499Z,99.90
2019-04-16T05:40:21.316Z,99.90
2019-04-16T05:42:52.662Z,99.90
2019-04-16T05:45:21.098Z,99.90
2019-04-16T05:47:49.969Z,99.90
2019-04-16T05:50:19.062Z,99.90
2019-04-16T05:52:48.146Z,99.90
2019-04-16T05:55:34.911Z,99.90
2019-04-16T05:58:03.883Z,99.90
2019-04-16T06:00:46.420Z,99.90
2019-04-16T06:03:15.388Z,99.90
2019-04-16T06:05:44.446Z,99.90
2019-04-16T06:08:13.653Z,99.90
2019-04-16T06:10:42.611Z,99.90
2019-04-16T06:13:29.685Z,99.90
2019-04-16T06:16:25.520Z,99.90
2019-04-16T06:19:16.576Z,99.90
2019-04-16T06:22:10.654Z,99.20
2019-04-16T06:24:56.115Z,97.50
2019-04-16T06:27:35.497Z,97.60
2019-04-16T06:30:39.650Z,96.20
2019-04-16T06:33:14.940Z,96.00
2019-04-16T06:36:01.690Z,94.50
2019-04-16T06:38:43.844Z,92.80
2019-04-16T06:41:41.483Z,92.50
2019-04-16T06:44:04.426Z,92.20
2019-04-16T06:46:51.384Z,90.70
2019-04-16T06:49:39.595Z,89.10
2019-04-16T06:52:20.554Z,86.30
2019-04-16T06:54:57.322Z,85.50
2019-04-16T06:57:44.390Z,81.60
2019-04-16T07:00:35.059Z,79.50
2019-04-16T07:03:38.226Z,81.50
2019-04-16T07:06:25.220Z,78.50
2019-04-16T07:09:13.243Z,76.50
2019-04-16T07:11:53.731Z,71.10
2019-04-16T07:14:15.705Z,72.40
2019-04-16T07:16:44.774Z,73.20
2019-04-16T07:19:16.608Z,73.30
2019-04-16T07:21:48.660Z,71.90
2019-04-16T07:24:15.238Z,67.10
2019-04-16T07:26:47.625Z,68.90
2019-04-16T07:29:22.010Z,69.40
2019-04-16T07:32:08.854Z,67.20
2019-04-16T07:34:50.278Z,65.50
2019-04-16T07:37:46.899Z,64.90
2019-04-16T07:40:47.415Z,70.30
2019-04-16T07:43:47.613Z,66.90
2019-04-16T07:46:49.398Z,63.90
2019-04-16T07:49:34.821Z,64.50
2019-04-16T07:52:23.675Z,63.60
2019-04-16T07:55:17.805Z,60.40
2019-04-16T07:57:49.982Z,64.00
2019-04-16T08:00:19.856Z,58.40
2019-04-16T08:02:53.640Z,58.60
2019-04-16T08:05:27.698Z,58.30
2019-04-16T08:07:55.478Z,55.20
2019-04-16T08:10:27.340Z,55.40
2019-04-16T08:13:00.837Z,54.50
2019-04-16T08:15:35.199Z,51.10
2019-04-16T08:18:21.531Z,50.00
2019-04-16T08:20:38.170Z,54.10
2019-04-16T08:23:44.499Z,48.40
2019-04-16T08:26:20.166Z,47.60
2019-04-16T08:28:52.231Z,46.60
2019-04-16T08:31:33.200Z,46.70
2019-04-16T08:34:10.091Z,48.10
2019-04-16T08:36:41.863Z,46.80
2019-04-16T08:39:16.076Z,43.50
2019-04-16T08:41:52.377Z,43.50
2019-04-16T08:44:22.270Z,46.60
2019-04-16T08:46:51.469Z,41.20
2019-04-16T08:49:22.405Z,43.50
2019-04-16T08:51:51.236Z,41.00
2019-04-16T08:54:20.162Z,42.20
2019-04-16T08:56:49.171Z,40.70
2019-04-16T08:59:18.192Z,38.30
2019-04-16T09:01:47.261Z,36.10
2019-04-16T09:04:16.210Z,37.10
2019-04-16T09:06:46.392Z,38.90
2019-04-16T09:09:40.913Z,40.30
2019-04-16T09:12:10.241Z,36.70
2019-04-16T09:14:45.831Z,38.30
2019-04-16T09:17:17.605Z,37.70
2019-04-16T09:19:52.240Z,34.20
2019-04-16T09:22:21.276Z,35.50
2019-04-16T09:25:15.494Z,36.80
2019-04-16T09:27:47.473Z,38.60
2019-04-16T09:30:43.385Z,37.90
2019-04-16T09:33:16.114Z,40.90
2019-04-16T09:36:13.154Z,37.80
2019-04-16T09:38:50.072Z,38.40
2019-04-16T09:41:34.087Z,42.20
2019-04-16T09:44:03.370Z,41.50
2019-04-16T09:46:50.679Z,40.40
2019-04-16T09:49:04.689Z,42.10
2019-04-16T09:51:34.450Z,41.80
2019-04-16T09:54:03.464Z,40.30
2019-04-16T09:56:33.131Z,40.70
2019-04-16T09:59:20.362Z,38.70
2019-04-16T10:01:57.341Z,40.00
2019-04-16T10:04:26.370Z,40.80
2019-04-16T10:06:55.382Z,41.20
2019-04-16T10:09:24.381Z,39.20
2019-04-16T10:11:53.491Z,40.00
2019-04-16T10:14:22.362Z,38.90
2019-04-16T10:16:51.421Z,37.10
2019-04-16T10:19:21.719Z,40.10
2019-04-16T10:21:54.320Z,42.50
2019-04-16T10:24:47.069Z,39.40
2019-04-16T10:27:24.429Z,38.40
2019-04-16T10:29:53.448Z,39.70
2019-04-16T10:32:22.470Z,39.20
2019-04-16T10:34:51.459Z,40.10
2019-04-16T10:37:20.401Z,39.40
2019-04-16T10:40:13.237Z,39.80
2019-04-16T10:43:07.597Z,39.10
2019-04-16T10:45:58.711Z,40.50
2019-04-16T10:48:34.499Z,41.20
2019-04-16T10:51:24.474Z,40.70
2019-04-16T10:54:01.096Z,40.80
2019-04-16T10:56:48.098Z,40.40
2019-04-16T10:59:54.738Z,42.00
2019-04-16T11:02:57.664Z,40.90
2019-04-16T11:05:41.004Z,41.20
2019-04-16T11:08:11.186Z,42.30
2019-04-16T11:10:46.263Z,42.00
2019-04-16T11:13:26.878Z,41.50
2019-04-16T11:16:12.459Z,42.20
2019-04-16T11:18:41.918Z,40.30
2019-04-16T11:21:12.095Z,41.80
2019-04-16T11:23:41.384Z,42.40
2019-04-16T11:26:10.890Z,42.20
2019-04-16T11:28:40.142Z,42.80
2019-04-16T11:31:13.024Z,42.10
2019-04-16T11:33:42.666Z,43.70
2019-04-16T11:36:19.569Z,42.70
2019-04-16T11:38:43.314Z,41.40
2019-04-16T11:41:13.128Z,43.20
2019-04-16T11:43:42.568Z,43.90
2019-04-16T11:46:12.076Z,44.50
2019-04-16T11:48:41.601Z,43.40
2019-04-16T11:51:10.902Z,44.40
2019-04-16T11:53:40.257Z,43.50
2019-04-16T11:56:09.672Z,43.80
2019-04-16T11:58:46.060Z,43.70
2019-04-16T12:01:38.992Z,45.50
2019-04-16T12:04:27.305Z,45.30
2019-04-16T12:07:28.141Z,45.30
2019-04-16T12:10:10.833Z,45.60
2019-04-16T12:12:58.865Z,45.40
2019-04-16T12:15:33.976Z,45.20
2019-04-16T12:18:33.929Z,46.80
2019-04-16T12:21:09.982Z,46.80
2019-04-16T12:23:56.565Z,47.40
2019-04-16T12:26:50.460Z,47.30
2019-04-16T12:29:33.042Z,47.50
2019-04-16T12:32:30.249Z,47.90
2019-04-16T12:35:21.134Z,47.90
2019-04-16T12:38:11.991Z,48.00
2019-04-16T12:41:03.842Z,46.90
2019-04-16T12:43:35.266Z,47.80
2019-04-16T12:46:12.922Z,47.70
2019-04-16T12:48:59.836Z,47.00
2019-04-16T12:52:06.375Z,48.10
2019-04-16T12:54:47.888Z,48.50
2019-04-16T12:57:35.471Z,48.20
2019-04-16T13:00:31.562Z,47.60
2019-04-16T13:03:16.424Z,47.90
2019-04-16T13:06:09.302Z,47.90
2019-04-16T13:08:47.294Z,50.00
2019-04-16T13:11:24.117Z,49.00
2019-04-16T13:14:01.587Z,49.00
2019-04-16T13:16:52.681Z,48.70
2019-04-16T13:19:58.921Z,49.90
2019-04-16T13:22:31.746Z,49.90
2019-04-16T13:25:10.971Z,49.00
2019-04-16T13:27:39.964Z,49.90
2019-04-16T13:30:09.714Z,49.80
2019-04-16T13:32:38.986Z,50.30
2019-04-16T13:35:08.309Z,50.10
2019-04-16T13:37:38.057Z,50.40
2019-04-16T13:40:16.319Z,50.50
2019-04-16T13:42:45.365Z,50.40
2019-04-16T13:45:32.102Z,50.80
2019-04-16T13:48:16.147Z,50.90
2019-04-16T13:50:41.229Z,49.90
2019-04-16T13:53:28.696Z,49.80
2019-04-16T13:56:17.398Z,50.40
2019-04-16T13:59:06.245Z,50.20
2019-04-16T14:01:45.167Z,50.60
2019-04-16T14:04:09.838Z,51.00
2019-04-16T14:06:38.767Z,50.30
2019-04-16T14:09:08.474Z,50.70
2019-04-16T14:11:37.611Z,49.90
2019-04-16T14:14:08.072Z,50.50
2019-04-16T14:16:37.353Z,50.80
2019-04-16T14:19:06.979Z,51.00
2019-04-16T14:21:36.371Z,51.10
2019-04-16T14:24:05.406Z,51.80
2019-04-16T14:26:34.462Z,51.00
2019-04-16T14:29:06.730Z,52.10
2019-04-16T14:31:34.710Z,50.70
2019-04-16T14:34:11.841Z,50.90
2019-04-16T14:36:40.872Z,50.00
2019-04-16T14:39:33.183Z,50.50
2019-04-16T14:42:02.171Z,50.40
2019-04-16T14:44:36.126Z,49.70
2019-04-16T14:47:05.233Z,50.50
2019-04-16T14:49:34.217Z,50.40
2019-04-16T14:52:03.670Z,51.50
2019-04-16T14:54:50.010Z,51.40
2019-04-16T14:57:19.166Z,52.00
2019-04-16T15:00:06.018Z,52.20
2019-04-16T15:02:57.386Z,52.30
2019-04-16T15:05:34.669Z,52.40
2019-04-16T15:08:35.152Z,52.10
2019-04-16T15:11:18.915Z,52.30
2019-04-16T15:13:55.105Z,52.50
2019-04-16T15:16:42.654Z,53.20
2019-04-16T15:19:33.947Z,53.60
2019-04-16T15:22:21.574Z,52.40
2019-04-16T15:25:08.659Z,53.30
2019-04-16T15:27:54.927Z,53.40
2019-04-16T15:30:45.061Z,53.40
2019-04-16T15:33:38.948Z,53.00
2019-04-16T15:36:09.798Z,52.90
2019-04-16T15:38:48.640Z,53.80
2019-04-16T15:41:26.237Z,53.70
2019-04-16T15:44:22.553Z,53.50
2019-04-16T15:47:13.409Z,54.50
2019-04-16T15:49:44.593Z,54.00
2019-04-16T15:52:32.908Z,54.70
2019-04-16T15:55:27.053Z,55.50
2019-04-16T15:58:13.859Z,54.80
2019-04-16T16:00:46.715Z,55.00
2019-04-16T16:03:35.249Z,55.20
2019-04-16T16:06:16.922Z,55.10
2019-04-16T16:08:53.668Z,56.60
2019-04-16T16:11:28.169Z,58.20
2019-04-16T16:14:00.457Z,59.50
2019-04-16T16:16:41.103Z,58.90
2019-04-16T16:18:59.432Z,58.80
2019-04-16T16:21:28.713Z,63.70
2019-04-16T16:23:57.605Z,66.00
2019-04-16T16:26:27.528Z,67.30
2019-04-16T16:28:56.829Z,67.30
2019-04-16T16:31:25.668Z,67.30
2019-04-16T16:33:54.557Z,67.20
2019-04-16T16:36:23.917Z,68.70
2019-04-16T16:38:52.894Z,70.00
2019-04-16T16:41:21.950Z,69.50
2019-04-16T16:43:50.890Z,71.10
2019-04-16T16:46:35.834Z,70.40
2019-04-16T16:49:05.599Z,72.20
2019-04-16T16:51:34.602Z,72.70
2019-04-16T16:54:09.509Z,72.70
2019-04-16T16:56:48.225Z,73.50
2019-04-16T16:59:35.288Z,73.70
2019-04-16T17:02:19.746Z,73.50
2019-04-16T17:04:50.721Z,73.20
2019-04-16T17:07:19.812Z,72.20
2019-04-16T17:09:48.724Z,73.20
2019-04-16T17:12:17.649Z,73.40
2019-04-16T17:14:46.619Z,74.20
2019-04-16T17:17:15.474Z,75.50
2019-04-16T17:19:44.570Z,77.20
2019-04-16T17:22:14.623Z,79.50
2019-04-16T17:24:44.450Z,81.20
2019-04-16T17:27:13.416Z,82.80
2019-04-16T17:29:42.341Z,87.10
2019-04-16T17:32:11.406Z,89.50
2019-04-16T17:34:40.493Z,90.40
2019-04-16T17:37:09.513Z,90.70
2019-04-16T17:40:03.808Z,91.50
2019-04-16T17:42:38.949Z,93.50
2019-04-16T17:45:42.566Z,93.90
2019-04-16T17:48:21.731Z,95.60
2019-04-16T17:51:06.525Z,93.00
2019-04-16T17:53:57.585Z,94.80
2019-04-16T17:56:54.479Z,94.90
2019-04-16T17:59:38.381Z,96.00
2019-04-16T18:02:28.065Z,98.10
2019-04-16T18:05:13.869Z,97.70
2019-04-16T18:08:00.802Z,99.90
2019-04-16T18:10:49.580Z,99.10
2019-04-16T18:13:36.447Z,99.90
2019-04-16T18:16:19.753Z,99.90
2019-04-16T18:19:00.989Z,99.90
2019-04-16T18:21:50.092Z,99.90
2019-04-16T18:24:44.266Z,99.90
2019-04-16T18:27:25.514Z,99.90
2019-04-16T18:30:17.305Z,99.90
2019-04-16T18:33:05.665Z,99.90
2019-04-16T18:35:42.797Z,99.90
2019-04-16T18:38:19.038Z,99.90
2019-04-16T18:41:03.614Z,99.90
2019-04-16T18:43:50.121Z,99.90
2019-04-16T18:46:23.923Z,99.90
2019-04-16T18:48:59.989Z,99.90
2019-04-16T18:51:32.923Z,99.90
2019-04-16T18:53:59.603Z,99.90
2019-04-16T18:56:28.634Z,99.90
2019-04-16T18:58:57.896Z,99.90
2019-04-16T19:01:29.684Z,99.90
2019-04-16T19:03:59.269Z,99.90
2019-04-16T19:06:28.145Z,99.90
2019-04-16T19:08:57.246Z,99.90
2019-04-16T19:11:26.267Z,99.90
2019-04-16T19:13:55.402Z,99.90
2019-04-16T19:16:24.432Z,99.90
2019-04-16T19:18:53.639Z,99.90
2019-04-16T19:21:22.972Z,99.90
2019-04-16T19:23:52.454Z,99.90
2019-04-16T19:26:21.554Z,99.90
2019-04-16T19:28:50.888Z,99.90
2019-04-16T19:31:22.642Z,99.90
2019-04-16T19:33:52.638Z,99.90
2019-04-16T19:36:24.901Z,99.90
2019-04-16T19:38:52.474Z,99.90
2019-04-16T19:41:24.379Z,99.90
2019-04-16T19:43:52.378Z,99.90
2019-04-16T19:46:22.200Z,99.90
2019-04-16T19:48:51.170Z,99.90
2019-04-16T19:51:20.276Z,99.90
2019-04-16T19:53:49.296Z,99.90
2019-04-16T19:56:18.633Z,99.90
2019-04-16T19:58:50.636Z,99.90
2019-04-16T20:01:19.910Z,99.90
2019-04-16T20:03:48.863Z,99.90
2019-04-16T20:06:17.997Z,99.90
2019-04-16T20:08:46.932Z,99.90
2019-04-16T20:11:20.501Z,99.90
2019-04-16T20:13:46.769Z,99.90
2019-04-16T20:16:16.017Z,99.90
2019-04-16T20:18:51.201Z,99.90
2019-04-16T20:21:15.878Z,99.90
2019-04-16T20:23:44.741Z,99.90
2019-04-16T20:26:13.772Z,99.90
2019-04-16T20:28:45.308Z,99.90
2019-04-16T20:31:13.718Z,99.90
2019-04-16T20:33:42.633Z,99.90
2019-04-16T20:36:11.857Z,99.90
2019-04-16T20:38:41.072Z,99.90
2019-04-16T20:41:10.905Z,99.90
2019-04-16T20:43:39.955Z,99.90
2019-04-16T20:46:08.954Z,99.90
2019-04-16T20:48:37.968Z,99.90
2019-04-16T20:51:07.013Z,99.90
2019-04-16T20:53:38.102Z,99.90
2019-04-16T20:56:10.736Z,99.90
2019-04-16T20:58:38.796Z,99.90
2019-04-16T21:01:07.875Z,99.90
2019-04-16T21:03:36.808Z,99.90
2019-04-16T21:06:07.848Z,99.90
2019-04-16T21:08:36.854Z,99.90
2019-04-16T21:11:08.821Z,99.90
2019-04-16T21:13:36.969Z,99.90
2019-04-16T21:16:05.974Z,99.90
2019-04-16T21:18:35.229Z,99.90
2019-04-16T21:21:04.607Z,99.90
2019-04-16T21:23:34.665Z,99.90
2019-04-16T21:26:04.414Z,99.90
2019-04-16T21:28:41.005Z,99.90
2019-04-16T21:31:16.117Z,99.90
2019-04-16T21:33:52.221Z,99.90
2019-04-16T21:36:33.871Z,99.90
2019-04-16T21:39:33.662Z,99.90
2019-04-16T21:42:03.437Z,99.90
2019-04-16T21:44:32.596Z,99.90
2019-04-16T21:47:01.680Z,99.90
2019-04-16T21:49:38.394Z,99.90
2019-04-16T21:52:07.952Z,99.90
2019-04-16T21:54:37.537Z,99.90
2019-04-16T21:57:09.839Z,99.90
2019-04-16T21:59:37.332Z,99.90
2019-04-16T22:02:27.014Z,99.90
2019-04-16T22:04:56.214Z,99.90
2019-04-16T22:07:25.681Z,99.90
2019-04-16T22:09:54.694Z,99.90
2019-04-16T22:12:23.729Z,99.90
2019-04-16T22:14:54.441Z,99.90
2019-04-16T22:17:23.602Z,99.90
2019-04-16T22:20:00.195Z,99.90
2019-04-16T22:22:23.123Z,99.90
2019-04-16T22:24:55.032Z,99.90
2019-04-16T22:27:22.649Z,99.90
2019-04-16T22:29:51.653Z,99.90
2019-04-16T22:32:20.658Z,99.90
2019-04-16T22:34:49.637Z,99.90
2019-04-16T22:37:18.679Z,99.90
2019-04-16T22:40:25.152Z,99.90
2019-04-16T22:43:06.961Z,99.90
2019-04-16T22:45:52.089Z,99.90
2019-04-16T22:48:19.625Z,99.90
2019-04-16T22:50:48.800Z,99.90
2019-04-16T22:53:17.995Z,99.90
2019-04-16T22:55:47.330Z,99.90
2019-04-16T22:58:25.862Z,99.90
2019-04-16T23:01:02.962Z,99.90
2019-04-16T23:03:32.009Z,99.90
2019-04-16T23:06:05.183Z,99.90
2019-04-16T23:08:31.760Z,99.90
2019-04-16T23:11:00.715Z,99.90
2019-04-16T23:13:32.409Z,99.90
2019-04-16T23:16:00.224Z,99.90
2019-04-16T23:18:29.302Z,99.90
2019-04-16T23:20:58.390Z,99.90
2019-04-16T23:23:27.381Z,99.90
2019-04-16T23:25:59.022Z,99.90
2019-04-16T23:28:27.102Z,99.90
2019-04-16T23:30:56.025Z,99.90
2019-04-16T23:33:24.992Z,99.90
2019-04-16T23:35:53.929Z,99.90
2019-04-16T23:38:22.857Z,99.90
2019-04-16T23:40:52.068Z,99.90
2019-04-16T23:43:38.682Z,99.90
2019-04-16T23:46:27.360Z,99.90
2019-04-16T23:49:16.546Z,99.90
2019-04-16T23:51:54.894Z,99.90
2019-04-16T23:54:31.121Z,99.90
2019-04-16T23:57:06.789Z,99.90
